Time;durP1;ratioP1;P1;durP2;ratioP2;P2;SDS_P1;SDS_P2;PMS_P1;PMS_P2;Temp;Humidity;BMP_temperature;BMP_pressure;BME280_temperature;BME280_humidity;BME280_pressure;Samples;Min_cycle;Max_cycle;Signal;HPM_P1;HPM_P2
2021/05/14 00:00:25;;;;;;;4.17;3.77;;;11.60;1.00;;;;;;5126174;27;20304;-82
2021/05/14 00:02:52;;;;;;;3.95;3.55;;;11.60;1.00;;;;;;5144026;27;20446;-84
2021/05/14 00:05:18;;;;;;;4.30;3.90;;;11.60;1.00;;;;;;5134989;27;20272;-84
2021/05/14 00:07:44;;;;;;;4.23;3.83;;;11.60;1.00;;;;;;5157759;27;20304;-84
2021/05/14 00:10:12;;;;;;;4.70;4.30;;;11.60;1.00;;;;;;5154956;27;20429;-83
2021/05/14 00:12:38;;;;;;;5.68;4.28;;;11.60;1.00;;;;;;5156224;27;20413;-84
2021/05/14 00:15:07;;;;;;;4.47;4.07;;;11.60;1.00;;;;;;5150161;27;20227;-84
2021/05/14 00:17:34;;;;;;;4.45;4.15;;;11.60;1.00;;;;;;5142144;27;20280;-82
2021/05/14 00:20:00;;;;;;;4.20;3.80;;;11.60;1.00;;;;;;5132069;27;20230;-83
2021/05/14 00:22:26;;;;;;;3.97;3.67;;;11.60;1.00;;;;;;5143696;27;20531;-84
2021/05/14 00:24:53;;;;;;;3.30;3.10;;;11.60;1.00;;;;;;5121631;27;21133;-82
2021/05/14 00:27:20;;;;;;;3.80;3.50;;;11.60;1.00;;;;;;5122264;27;20224;-83
2021/05/14 00:29:46;;;;;;;3.97;3.67;;;11.60;1.00;;;;;;5122683;27;20449;-81
2021/05/14 00:32:14;;;;;;;3.57;3.27;;;11.60;1.00;;;;;;5125226;27;20235;-82
2021/05/14 00:34:40;;;;;;;3.60;3.30;;;11.60;1.00;;;;;;5106743;27;20447;-83
2021/05/14 00:37:07;;;;;;;4.30;3.78;;;11.60;1.00;;;;;;5095261;27;20289;-83
2021/05/14 00:39:33;;;;;;;3.40;3.00;;;11.60;1.00;;;;;;5117066;27;20219;-82
2021/05/14 00:41:59;;;;;;;3.17;2.97;;;11.60;1.00;;;;;;5113666;27;20461;-83
2021/05/14 00:44:27;;;;;;;3.55;3.30;;;11.60;1.00;;;;;;5116428;27;20321;-83
2021/05/14 00:46:54;;;;;;;2.83;2.63;;;11.60;1.00;;;;;;5117397;27;20272;-82
2021/05/14 00:49:21;;;;;;;2.60;2.40;;;11.60;1.00;;;;;;5121443;27;20444;-83
2021/05/14 00:51:48;;;;;;;1.83;1.73;;;11.60;1.00;;;;;;5101914;27;20884;-83
2021/05/14 00:54:15;;;;;;;2.13;2.03;;;11.60;1.00;;;;;;5131861;27;20409;-85
2021/05/14 00:56:42;;;;;;;2.53;2.33;;;11.60;1.00;;;;;;5142177;27;20227;-84
2021/05/14 00:59:09;;;;;;;2.57;2.37;;;11.60;1.00;;;;;;5117010;27;20560;-83
2021/05/14 01:01:35;;;;;;;3.67;2.10;;;11.60;1.00;;;;;;5114680;27;20597;-83
2021/05/14 01:04:01;;;;;;;2.95;2.70;;;11.60;1.00;;;;;;5111316;27;20726;-82
2021/05/14 01:06:29;;;;;;;2.40;2.20;;;11.60;1.00;;;;;;5113826;27;20253;-82
2021/05/14 01:08:57;;;;;;;2.43;2.23;;;11.60;1.00;;;;;;5113091;27;21059;-83
2021/05/14 01:11:24;;;;;;;2.50;2.30;;;11.60;1.00;;;;;;5114828;27;20983;-83
2021/05/14 01:13:50;;;;;;;2.88;2.67;;;11.60;1.00;;;;;;5112633;27;21397;-81
2021/05/14 01:16:16;;;;;;;2.72;2.53;;;11.50;1.00;;;;;;5101188;27;20235;-84
2021/05/14 01:18:43;;;;;;;2.20;2.00;;;11.50;1.00;;;;;;5120249;27;20288;-82
2021/05/14 01:21:10;;;;;;;2.30;2.10;;;11.60;1.00;;;;;;5118307;27;20459;-82
2021/05/14 01:23:36;;;;;;;2.65;2.45;;;11.60;1.00;;;;;;5117785;27;20225;-83
2021/05/14 01:26:08;;;;;;;2.67;2.47;;;11.50;1.00;;;;;;5110388;27;20350;-83
2021/05/14 01:28:34;;;;;;;2.23;2.10;;;11.50;1.00;;;;;;5115983;27;20458;-82
2021/05/14 01:31:01;;;;;;;2.70;2.50;;;11.50;1.00;;;;;;5094838;27;20493;-82
2021/05/14 01:33:27;;;;;;;2.40;2.20;;;11.50;1.00;;;;;;5107589;27;20560;-83
2021/05/14 01:35:53;;;;;;;2.70;2.50;;;11.50;1.00;;;;;;5095055;27;20233;-82
2021/05/14 01:38:20;;;;;;;2.40;2.20;;;11.50;1.00;;;;;;5113167;27;20227;-83
2021/05/14 01:40:46;;;;;;;2.78;2.58;;;11.50;1.00;;;;;;5111441;27;20557;-83
2021/05/14 01:43:13;;;;;;;2.55;2.35;;;11.60;1.00;;;;;;5092683;27;20300;-82
2021/05/14 01:45:39;;;;;;;3.63;2.40;;;11.50;1.00;;;;;;5098416;27;20292;-82
2021/05/14 01:48:06;;;;;;;2.85;2.35;;;11.50;1.00;;;;;;5114829;27;20540;-83
2021/05/14 01:50:32;;;;;;;2.30;2.20;;;11.50;1.00;;;;;;5115290;27;20223;-82
2021/05/14 01:52:59;;;;;;;2.83;2.55;;;11.50;1.00;;;;;;5117970;27;20721;-83
2021/05/14 01:55:26;;;;;;;2.35;2.15;;;11.40;1.00;;;;;;5096110;27;20243;-83
2021/05/14 01:57:52;;;;;;;2.40;2.20;;;11.40;1.00;;;;;;5097194;27;20233;-82
2021/05/14 02:00:19;;;;;;;2.35;2.13;;;11.40;1.00;;;;;;5113313;27;20271;-81
2021/05/14 02:02:46;;;;;;;3.20;2.27;;;11.40;1.00;;;;;;5119727;27;20362;-82
2021/05/14 02:05:13;;;;;;;2.67;2.20;;;11.40;1.00;;;;;;5110639;27;20446;-82
2021/05/14 02:07:39;;;;;;;2.45;2.25;;;11.40;1.00;;;;;;5114270;27;20254;-83
2021/05/14 02:10:07;;;;;;;2.20;2.00;;;11.40;1.00;;;;;;5115450;27;21011;-83
2021/05/14 02:12:34;;;;;;;2.13;2.03;;;11.50;1.00;;;;;;5093371;27;20225;-82
2021/05/14 02:15:01;;;;;;;2.57;2.37;;;11.50;1.00;;;;;;5096124;27;20319;-83
2021/05/14 02:17:27;;;;;;;2.17;2.00;;;11.50;1.00;;;;;;5113565;27;20412;-82
2021/05/14 02:19:54;;;;;;;2.30;2.10;;;11.40;1.00;;;;;;5107898;27;20234;-82
2021/05/14 02:22:20;;;;;;;2.45;2.25;;;11.40;1.00;;;;;;5117489;27;20243;-83
2021/05/14 02:24:47;;;;;;;2.03;1.92;;;11.40;1.00;;;;;;5095418;27;20306;-83
2021/05/14 02:27:13;;;;;;;2.40;2.20;;;11.40;1.00;;;;;;5114615;27;20277;-82
2021/05/14 02:29:40;;;;;;;2.35;2.13;;;11.40;1.00;;;;;;5112714;27;20998;-84
2021/05/14 02:32:07;;;;;;;2.20;2.00;;;11.50;1.00;;;;;;5112352;27;20336;-83
2021/05/14 02:34:33;;;;;;;2.47;2.30;;;11.40;1.00;;;;;;5116741;27;20218;-83
2021/05/14 02:37:00;;;;;;;2.60;2.40;;;11.50;1.00;;;;;;5093602;27;20443;-82
2021/05/14 02:39:26;;;;;;;2.60;2.40;;;11.50;1.00;;;;;;5115753;27;20414;-82
2021/05/14 02:41:53;;;;;;;2.72;2.53;;;11.50;1.00;;;;;;5116721;27;20436;-82
2021/05/14 02:44:19;;;;;;;2.63;2.42;;;11.50;1.00;;;;;;5121839;27;20251;-82
2021/05/14 02:46:47;;;;;;;2.40;2.25;;;11.50;1.00;;;;;;5113637;27;20345;-82
2021/05/14 02:49:13;;;;;;;2.50;2.30;;;11.40;1.00;;;;;;5114656;27;20223;-83
2021/05/14 02:51:40;;;;;;;2.50;2.30;;;11.40;1.00;;;;;;5112650;27;20551;-83
2021/05/14 02:54:07;;;;;;;2.25;2.10;;;11.50;1.00;;;;;;5119273;27;20300;-83
2021/05/14 02:56:34;;;;;;;2.65;2.45;;;11.40;1.00;;;;;;5094003;27;20227;-81
2021/05/14 02:59:00;;;;;;;2.90;2.60;;;11.40;1.00;;;;;;5114093;27;20376;-82
2021/05/14 03:01:26;;;;;;;3.20;2.90;;;11.40;1.00;;;;;;5112305;27;20443;-83
2021/05/14 03:03:53;;;;;;;3.17;2.87;;;11.40;1.00;;;;;;5116260;27;20217;-82
2021/05/14 03:06:20;;;;;;;2.83;2.63;;;11.50;1.00;;;;;;5110922;27;20499;-82
2021/05/14 03:08:46;;;;;;;2.80;2.60;;;11.50;1.00;;;;;;5114805;27;20456;-85
2021/05/14 03:11:13;;;;;;;3.47;3.17;;;11.50;1.00;;;;;;5114300;27;21039;-82
2021/05/14 03:13:39;;;;;;;3.60;3.30;;;11.50;1.00;;;;;;5116026;27;20257;-83
2021/05/14 03:16:06;;;;;;;4.07;3.17;;;11.60;1.00;;;;;;5116441;27;20275;-83
2021/05/14 03:18:32;;;;;;;3.72;3.42;;;11.60;1.00;;;;;;5118267;27;20258;-82
2021/05/14 03:20:59;;;;;;;3.63;3.33;;;11.60;1.00;;;;;;5118712;27;20229;-83
2021/05/14 03:23:26;;;;;;;3.67;3.38;;;11.60;1.00;;;;;;5116214;27;20229;-82
2021/05/14 03:25:52;;;;;;;4.00;3.70;;;11.60;1.00;;;;;;5119911;27;20227;-83
2021/05/14 03:28:18;;;;;;;3.72;3.20;;;11.60;1.00;;;;;;5115845;27;21248;-81
2021/05/14 03:30:45;;;;;;;4.75;4.35;;;11.60;1.00;;;;;;5118909;27;20494;-82
2021/05/14 03:33:19;;;;;;;4.25;3.95;;;11.60;1.00;;;;;;5112748;27;20234;-83
2021/05/14 03:35:46;;;;;;;4.50;4.20;;;11.60;1.00;;;;;;5113946;27;20237;-83
2021/05/14 03:38:13;;;;;;;4.45;4.05;;;11.60;1.00;;;;;;5116127;27;21046;-82
2021/05/14 03:40:40;;;;;;;5.28;4.65;;;11.70;1.00;;;;;;5117646;27;21101;-83
2021/05/14 03:43:07;;;;;;;4.67;4.27;;;11.70;1.00;;;;;;5112052;27;20734;-82
2021/05/14 03:45:33;;;;;;;4.93;3.93;;;11.70;1.00;;;;;;5112430;27;20463;-83
2021/05/14 03:48:00;;;;;;;5.00;4.55;;;11.70;1.00;;;;;;5115944;27;20446;-82
2021/05/14 03:50:31;;;;;;;4.70;4.28;;;11.60;1.00;;;;;;5114540;27;20227;-84
2021/05/14 03:52:57;;;;;;;5.77;5.27;;;11.70;1.00;;;;;;5113190;27;20232;-82
2021/05/14 03:55:24;;;;;;;4.30;3.90;;;11.70;1.00;;;;;;5114671;27;20472;-84
2021/05/14 03:57:50;;;;;;;6.78;6.03;;;11.70;1.00;;;;;;5114485;27;20468;-84
2021/05/14 04:00:18;;;;;;;4.90;4.50;;;11.70;1.00;;;;;;5113013;27;20276;-82
2021/05/14 04:02:44;;;;;;;4.45;4.05;;;11.70;1.00;;;;;;5113971;27;20322;-85
2021/05/14 04:05:11;;;;;;;6.00;4.43;;;11.70;1.00;;;;;;5113670;27;20268;-83
2021/05/14 04:07:37;;;;;;;4.20;3.83;;;11.70;1.00;;;;;;5115037;27;20454;-84
2021/05/14 04:10:11;;;;;;;5.10;4.60;;;11.70;1.00;;;;;;5116312;27;20441;-82
2021/05/14 04:15:25;;;;;;;4.67;4.27;;;11.70;1.00;;;;;;5116742;27;20223;-83
2021/05/14 04:17:51;;;;;;;5.07;4.50;;;11.80;1.00;;;;;;5122886;27;20466;-83
2021/05/14 04:20:17;;;;;;;3.88;3.40;;;11.80;1.00;;;;;;5121033;27;20437;-83
2021/05/14 04:22:44;;;;;;;3.30;3.07;;;11.80;1.00;;;;;;5110442;27;20229;-82
2021/05/14 04:25:11;;;;;;;3.57;3.23;;;11.80;1.00;;;;;;5121283;27;20416;-82
2021/05/14 04:27:38;;;;;;;3.50;3.20;;;11.70;1.00;;;;;;5137815;27;20425;-82
2021/05/14 04:30:06;;;;;;;3.47;3.20;;;11.70;1.00;;;;;;5150451;27;20472;-84
2021/05/14 04:32:32;;;;;;;2.90;2.70;;;11.80;1.00;;;;;;5151268;27;20408;-85
2021/05/14 04:34:58;;;;;;;3.10;2.90;;;11.70;1.00;;;;;;5145887;27;20432;-85
2021/05/14 04:37:24;;;;;;;3.22;2.92;;;11.70;1.00;;;;;;5149641;27;20458;-85
2021/05/14 04:39:51;;;;;;;2.70;2.50;;;11.70;1.00;;;;;;5149529;27;20251;-84
2021/05/14 04:42:17;;;;;;;2.70;2.50;;;11.70;1.00;;;;;;5144983;27;20217;-84
2021/05/14 04:44:44;;;;;;;3.27;2.63;;;11.80;1.00;;;;;;5140942;27;20418;-83
2021/05/14 04:47:10;;;;;;;3.00;2.80;;;11.80;1.00;;;;;;5133164;27;20488;-84
2021/05/14 04:49:36;;;;;;;3.27;3.07;;;11.80;1.00;;;;;;5123127;27;20301;-83
2021/05/14 04:52:16;;;;;;;3.20;2.90;;;11.90;1.00;;;;;;5134761;27;20445;-82
2021/05/14 04:54:42;;;;;;;3.50;3.20;;;11.90;1.00;;;;;;5130490;27;20444;-83
2021/05/14 04:57:09;;;;;;;5.07;4.50;;;11.90;1.00;;;;;;5127801;27;20457;-83
2021/05/14 04:59:35;;;;;;;2.67;2.47;;;11.90;1.00;;;;;;5126166;27;20460;-82
2021/05/14 05:02:06;;;;;;;3.40;3.10;;;11.90;1.00;;;;;;5125281;27;20449;-82
2021/05/14 05:04:32;;;;;;;3.63;2.77;;;11.90;1.00;;;;;;5123981;27;20424;-82
2021/05/14 05:06:59;;;;;;;4.87;4.47;;;11.90;1.00;;;;;;5107887;27;20425;-82
2021/05/14 05:09:25;;;;;;;4.40;4.10;;;11.90;1.00;;;;;;5120388;27;20429;-83
2021/05/14 05:11:51;;;;;;;4.43;3.67;;;11.90;1.00;;;;;;5121342;27;21034;-84
2021/05/14 05:14:17;;;;;;;3.70;3.40;;;11.90;1.00;;;;;;5107440;27;21282;-82
2021/05/14 05:16:44;;;;;;;3.30;3.00;;;11.80;1.00;;;;;;5101443;27;20606;-83
2021/05/14 05:19:10;;;;;;;3.43;2.87;;;11.80;1.00;;;;;;5127568;27;20452;-84
2021/05/14 05:21:37;;;;;;;3.47;3.17;;;11.70;1.00;;;;;;5122728;27;20457;-83
2021/05/14 05:24:04;;;;;;;2.83;2.63;;;11.60;1.00;;;;;;5126109;27;21277;-83
2021/05/14 05:26:30;;;;;;;2.83;2.63;;;11.60;1.00;;;;;;5120674;27;20497;-82
2021/05/14 05:28:57;;;;;;;3.10;2.85;;;11.60;1.00;;;;;;5125697;27;20282;-82
2021/05/14 05:31:23;;;;;;;3.30;3.00;;;11.60;1.00;;;;;;5127852;27;20219;-82
2021/05/14 05:33:49;;;;;;;2.95;2.75;;;11.60;1.00;;;;;;5123456;27;20504;-83
2021/05/14 05:36:16;;;;;;;3.10;2.80;;;11.60;1.00;;;;;;5122956;27;20233;-82
2021/05/14 05:38:43;;;;;;;3.60;3.30;;;11.60;1.00;;;;;;5124719;27;20227;-81
2021/05/14 05:41:10;;;;;;;3.40;3.10;;;11.60;1.00;;;;;;5128860;27;20232;-82
2021/05/14 05:43:36;;;;;;;3.47;3.00;;;11.60;1.00;;;;;;5127687;27;20218;-82
2021/05/14 05:46:02;;;;;;;3.65;2.63;;;11.60;1.00;;;;;;5124145;27;20557;-81
2021/05/14 05:48:28;;;;;;;4.50;4.07;;;11.70;1.00;;;;;;5120033;27;20215;-81
2021/05/14 05:50:55;;;;;;;4.70;4.30;;;11.70;1.00;;;;;;5123606;27;20544;-83
2021/05/14 05:53:22;;;;;;;3.57;3.27;;;11.80;1.00;;;;;;5107637;27;20447;-82
2021/05/14 05:55:49;;;;;;;3.43;3.13;;;11.80;1.00;;;;;;5123218;27;20464;-83
2021/05/14 05:58:16;;;;;;;3.90;3.40;;;11.80;1.00;;;;;;5123287;27;20431;-85
2021/05/14 06:00:43;;;;;;;3.30;3.00;;;11.80;1.00;;;;;;5132105;27;20221;-83
2021/05/14 06:03:10;;;;;;;2.63;2.43;;;11.70;1.00;;;;;;5122455;27;20480;-83
2021/05/14 06:05:37;;;;;;;2.50;2.30;;;11.70;1.00;;;;;;5124249;27;20432;-82
2021/05/14 06:08:04;;;;;;;3.03;2.75;;;11.70;1.00;;;;;;5128053;27;20451;-83
2021/05/14 06:10:37;;;;;;;3.30;3.00;;;11.80;1.00;;;;;;5126332;27;20313;-83
2021/05/14 06:13:04;;;;;;;2.70;2.30;;;11.80;1.00;;;;;;5127961;27;20219;-83
2021/05/14 06:15:32;;;;;;;3.83;2.80;;;11.80;1.00;;;;;;5105826;27;20543;-83
2021/05/14 06:17:59;;;;;;;2.40;2.20;;;11.90;1.00;;;;;;5124416;27;20468;-83
2021/05/14 06:20:27;;;;;;;3.00;2.73;;;12.00;1.00;;;;;;5129041;27;21352;-83
2021/05/14 06:22:55;;;;;;;2.97;2.77;;;11.90;1.00;;;;;;5135972;27;20444;-87
2021/05/14 06:25:54;;;;;;;3.00;2.70;;;11.90;1.00;;;;;;5118709;27;20954;-86
2021/05/14 06:28:22;;;;;;;3.70;3.33;;;11.90;1.00;;;;;;5120072;27;20231;-86
2021/05/14 06:31:03;;;;;;;3.43;2.90;;;11.90;1.00;;;;;;5123982;27;20219;-89
2021/05/14 06:33:29;;;;;;;2.70;2.50;;;12.10;1.00;;;;;;5109722;27;21281;-83
2021/05/14 06:35:57;;;;;;;3.70;3.23;;;12.10;1.00;;;;;;5125596;27;20479;-81
2021/05/14 06:38:24;;;;;;;3.37;3.07;;;12.20;1.00;;;;;;5132501;27;20440;-82
2021/05/14 06:40:50;;;;;;;2.97;2.30;;;12.20;1.00;;;;;;5125259;27;20534;-83
2021/05/14 06:43:16;;;;;;;4.10;3.70;;;12.30;1.00;;;;;;5132702;27;20464;-82
2021/05/14 06:45:43;;;;;;;3.40;3.10;;;12.40;1.00;;;;;;5133746;27;20575;-83
2021/05/14 06:48:14;;;;;;;3.77;3.40;;;12.40;1.00;;;;;;5135068;27;20431;-83
2021/05/14 06:50:41;;;;;;;3.47;3.17;;;12.40;1.00;;;;;;5131448;27;20453;-84
2021/05/14 06:53:07;;;;;;;5.23;4.73;;;12.40;1.00;;;;;;5143332;27;20437;-86
2021/05/14 06:55:35;;;;;;;5.03;4.63;;;12.30;1.00;;;;;;5143012;27;20448;-84
2021/05/14 06:58:03;;;;;;;4.38;3.97;;;12.20;1.00;;;;;;5138097;27;20457;-84
2021/05/14 07:00:29;;;;;;;4.70;4.30;;;12.00;1.00;;;;;;5134168;27;20227;-85
2021/05/14 07:02:57;;;;;;;5.40;4.90;;;11.90;1.00;;;;;;5119916;27;20687;-84
2021/05/14 07:05:23;;;;;;;5.57;5.00;;;11.90;1.00;;;;;;5134846;27;20342;-79
2021/05/14 07:07:52;;;;;;;5.65;5.15;;;11.80;1.00;;;;;;5139502;27;20242;-80
2021/05/14 07:10:19;;;;;;;5.93;5.33;;;11.80;1.00;;;;;;5143154;27;20219;-80
2021/05/14 07:12:45;;;;;;;5.80;5.20;;;11.80;1.00;;;;;;5146440;27;20516;-80
2021/05/14 07:15:14;;;;;;;5.30;4.90;;;11.80;1.00;;;;;;5150188;27;20543;-81
2021/05/14 07:17:41;;;;;;;6.03;5.50;;;11.70;1.00;;;;;;5144916;27;21360;-81
2021/05/14 07:20:09;;;;;;;6.47;5.93;;;11.70;1.00;;;;;;5146672;27;20410;-82
2021/05/14 07:22:36;;;;;;;8.27;7.47;;;11.60;1.00;;;;;;5138189;27;20445;-82
2021/05/14 07:25:03;;;;;;;7.03;6.43;;;11.70;1.00;;;;;;5143190;27;20433;-83
2021/05/14 07:27:32;;;;;;;6.28;5.68;;;11.80;1.00;;;;;;5141604;27;20221;-84
2021/05/14 07:29:59;;;;;;;4.87;4.40;;;11.80;1.00;;;;;;5131458;27;20225;-83
2021/05/14 07:32:25;;;;;;;3.90;3.47;;;11.80;1.00;;;;;;5137715;27;20530;-85
2021/05/14 07:34:53;;;;;;;4.57;4.20;;;11.80;1.00;;;;;;5117151;27;20444;-84
2021/05/14 07:37:20;;;;;;;4.40;4.00;;;11.80;1.00;;;;;;5123408;27;20649;-85
2021/05/14 07:39:47;;;;;;;3.53;3.17;;;11.90;1.00;;;;;;5148414;27;20245;-83
2021/05/14 07:42:14;;;;;;;3.50;3.20;;;12.00;1.00;;;;;;5144218;27;20393;-82
2021/05/14 07:44:40;;;;;;;3.38;2.58;;;12.00;1.00;;;;;;5143169;27;20264;-83
2021/05/14 07:47:06;;;;;;;3.53;3.17;;;12.10;1.00;;;;;;5136511;27;20261;-84
2021/05/14 07:49:33;;;;;;;3.60;2.60;;;12.10;1.00;;;;;;5132733;27;20255;-82
2021/05/14 07:52:00;;;;;;;3.70;2.80;;;12.10;1.00;;;;;;5134665;27;20430;-84
2021/05/14 07:54:27;;;;;;;4.10;3.10;;;12.20;1.00;;;;;;5135711;27;20450;-84
2021/05/14 07:56:53;;;;;;;3.20;2.80;;;12.20;1.00;;;;;;5115605;27;20452;-84
2021/05/14 07:59:20;;;;;;;3.70;3.30;;;12.20;1.00;;;;;;5112582;27;20517;-84
2021/05/14 08:01:46;;;;;;;3.53;3.23;;;12.30;1.00;;;;;;5133281;27;20473;-81
2021/05/14 08:04:12;;;;;;;2.13;2.03;;;12.30;1.00;;;;;;5130198;27;20517;-85
2021/05/14 08:06:39;;;;;;;4.53;4.17;;;12.30;1.00;;;;;;5135970;27;20441;-87
2021/05/14 08:09:07;;;;;;;4.10;3.60;;;12.30;1.00;;;;;;5113967;27;21264;-85
2021/05/14 08:11:34;;;;;;;7.77;3.40;;;12.20;1.00;;;;;;5133085;27;20445;-84
2021/05/14 08:14:04;;;;;;;3.53;2.87;;;12.10;1.00;;;;;;5131700;27;21190;-84
2021/05/14 08:16:31;;;;;;;2.95;2.47;;;12.20;1.00;;;;;;5117450;27;20477;-86
2021/05/14 08:18:57;;;;;;;3.07;2.63;;;12.10;1.00;;;;;;5131949;27;20218;-84
2021/05/14 08:21:23;;;;;;;2.83;2.53;;;12.20;1.00;;;;;;5140457;27;20444;-84
2021/05/14 08:23:51;;;;;;;2.37;2.17;;;12.20;1.00;;;;;;5135170;27;20478;-86
2021/05/14 08:26:17;;;;;;;4.15;2.58;;;12.20;1.00;;;;;;5132433;27;20445;-84
2021/05/14 08:28:44;;;;;;;2.10;1.90;;;12.20;1.00;;;;;;5133318;27;20314;-83
2021/05/14 08:31:11;;;;;;;2.13;1.67;;;12.30;1.00;;;;;;5132645;27;20404;-81
2021/05/14 08:33:37;;;;;;;3.50;3.23;;;12.30;1.00;;;;;;5140491;27;20470;-80
2021/05/14 08:36:04;;;;;;;3.40;2.33;;;12.30;1.00;;;;;;5142932;27;20444;-82
2021/05/14 08:38:30;;;;;;;2.60;2.40;;;12.30;1.00;;;;;;5134002;27;20445;-82
2021/05/14 08:40:57;;;;;;;3.77;3.47;;;12.40;1.00;;;;;;5116952;27;20457;-83
2021/05/14 08:43:23;;;;;;;3.33;3.03;;;12.40;1.00;;;;;;5133279;27;20463;-83
2021/05/14 08:45:50;;;;;;;4.13;3.83;;;12.30;1.00;;;;;;5135715;27;20466;-83
2021/05/14 08:48:18;;;;;;;4.83;3.87;;;12.30;1.00;;;;;;5144037;27;20428;-84
2021/05/14 08:50:44;;;;;;;4.07;3.67;;;12.30;1.00;;;;;;5156438;27;20385;-82
2021/05/14 08:53:10;;;;;;;3.10;2.90;;;12.40;1.00;;;;;;5153495;27;20932;-81
2021/05/14 08:55:37;;;;;;;4.00;2.67;;;12.40;1.00;;;;;;5154259;27;20428;-81
2021/05/14 08:58:04;;;;;;;3.30;2.43;;;12.50;1.00;;;;;;5157219;27;20499;-81
2021/05/14 09:00:30;;;;;;;2.20;2.00;;;12.50;1.00;;;;;;5153156;27;20431;-83
2021/05/14 09:02:57;;;;;;;2.80;2.40;;;12.40;1.00;;;;;;5154504;27;20470;-82
2021/05/14 09:05:25;;;;;;;3.05;2.75;;;12.20;1.00;;;;;;5149249;27;20468;-83
2021/05/14 09:07:52;;;;;;;3.53;3.10;;;12.00;1.00;;;;;;5140371;27;20222;-81
2021/05/14 09:10:19;;;;;;;3.67;3.23;;;11.80;1.00;;;;;;5128584;27;20511;-84
2021/05/14 09:12:46;;;;;;;4.07;3.67;;;11.60;1.00;;;;;;5130834;27;20463;-85
2021/05/14 09:15:29;;;;;;;4.32;3.38;;;11.60;1.00;;;;;;5129176;27;20223;-83
2021/05/14 09:18:04;;;;;;;4.43;3.80;;;11.50;1.00;;;;;;5133915;27;20253;-81
2021/05/14 09:20:31;;;;;;;4.75;4.35;;;11.40;1.00;;;;;;5128385;27;20302;-82
2021/05/14 09:23:00;;;;;;;4.45;3.80;;;11.40;1.00;;;;;;5135301;27;20279;-83
2021/05/14 09:25:26;;;;;;;5.85;4.72;;;11.30;1.00;;;;;;5129351;27;20258;-82
2021/05/14 09:27:53;;;;;;;4.20;3.90;;;11.30;1.00;;;;;;5114345;27;21968;-83
2021/05/14 09:30:19;;;;;;;4.50;4.10;;;11.30;1.00;;;;;;5128924;27;20520;-84
2021/05/14 09:32:46;;;;;;;3.40;3.10;;;11.30;1.00;;;;;;5129390;27;20547;-83
2021/05/14 09:35:12;;;;;;;3.47;3.17;;;11.40;1.00;;;;;;5123319;27;20569;-85
2021/05/14 09:37:49;;;;;;;5.40;4.90;;;11.40;1.00;;;;;;5132046;27;20219;-85
2021/05/14 09:40:17;;;;;;;6.00;4.15;;;11.40;1.00;;;;;;5128201;27;20417;-83
2021/05/14 09:42:45;;;;;;;4.90;4.53;;;11.40;1.00;;;;;;5112864;27;20218;-84
2021/05/14 09:45:13;;;;;;;6.47;4.55;;;11.30;1.00;;;;;;5117778;27;20549;-83
2021/05/14 09:47:40;;;;;;;3.65;3.35;;;11.20;1.00;;;;;;5130226;27;22391;-84
2021/05/14 09:50:32;;;;;;;4.13;3.83;;;11.20;1.00;;;;;;5135313;27;20212;-84
2021/05/14 09:53:04;;;;;;;3.90;3.60;;;11.20;1.00;;;;;;5141958;27;20421;-83
2021/05/14 09:55:31;;;;;;;3.85;3.55;;;11.30;1.00;;;;;;5126007;27;20226;-82
2021/05/14 09:58:02;;;;;;;3.57;3.27;;;11.30;1.00;;;;;;5140483;27;20260;-81
2021/05/14 10:00:29;;;;;;;3.75;3.10;;;11.40;1.00;;;;;;5115333;27;20425;-82
2021/05/14 10:02:58;;;;;;;2.35;2.15;;;11.40;1.00;;;;;;5131892;27;20274;-82
2021/05/14 10:05:24;;;;;;;3.85;2.45;;;11.30;1.00;;;;;;5133679;27;20315;-84
2021/05/14 10:07:52;;;;;;;2.73;2.23;;;11.20;1.00;;;;;;5135557;27;20223;-84
2021/05/14 10:10:19;;;;;;;4.20;2.50;;;11.10;1.00;;;;;;5131512;27;20409;-81
2021/05/14 10:12:48;;;;;;;3.90;2.30;;;11.10;1.00;;;;;;5133747;27;20255;-82
2021/05/14 10:15:15;;;;;;;4.63;2.20;;;11.10;1.00;;;;;;5140108;27;20224;-85
2021/05/14 10:17:46;;;;;;;6.15;3.58;;;11.20;1.00;;;;;;5134709;27;20216;-83
2021/05/14 10:20:14;;;;;;;3.38;2.45;;;11.30;1.00;;;;;;5134646;27;20272;-83
2021/05/14 10:22:41;;;;;;;3.40;2.40;;;11.50;1.00;;;;;;5134913;27;20225;-84
2021/05/14 10:25:13;;;;;;;2.50;2.30;;;11.60;1.00;;;;;;5137379;27;20215;-81
2021/05/14 10:27:42;;;;;;;3.58;2.15;;;11.50;1.00;;;;;;5130700;27;20219;-79
2021/05/14 10:30:09;;;;;;;4.07;2.80;;;11.60;1.00;;;;;;5143108;27;20230;-88
2021/05/14 10:32:56;;;;;;;3.80;2.70;;;11.60;1.00;;;;;;5128315;27;20446;-86
2021/05/14 10:35:25;;;;;;;2.65;2.45;;;11.70;1.00;;;;;;5116615;27;20235;-86
2021/05/14 10:37:55;;;;;;;4.87;2.47;;;11.80;1.00;;;;;;5118212;27;20273;-84
2021/05/14 10:40:44;;;;;;;3.58;2.10;;;11.90;1.00;;;;;;5128450;27;20491;-83
2021/05/14 10:43:12;;;;;;;3.50;2.70;;;11.90;1.00;;;;;;5135630;27;20222;-85
2021/05/14 10:45:40;;;;;;;6.53;3.40;;;12.00;1.00;;;;;;5111432;27;20455;-84
2021/05/14 10:48:22;;;;;;;4.03;2.70;;;12.20;1.00;;;;;;5128360;27;20453;-83
2021/05/14 10:50:52;;;;;;;4.57;2.43;;;12.40;1.00;;;;;;5124823;27;20461;-83
2021/05/14 10:53:28;;;;;;;6.23;2.60;;;12.60;1.00;;;;;;5138928;27;20470;-83
2021/05/14 10:56:05;;;;;;;6.03;2.50;;;12.80;1.00;;;;;;5129757;27;21601;-84
2021/05/14 10:58:48;;;;;;;2.40;2.20;;;12.90;1.00;;;;;;5139459;27;20218;-85
2021/05/14 11:01:34;;;;;;;3.63;2.53;;;12.90;1.00;;;;;;5148787;27;20775;-83
2021/05/14 11:04:02;;;;;;;3.93;2.47;;;12.90;1.00;;;;;;5137415;27;21224;-85
2021/05/14 11:06:40;;;;;;;5.33;2.63;;;12.90;1.00;;;;;;5135721;27;21236;-84
2021/05/14 11:09:09;;;;;;;2.93;2.50;;;13.00;1.00;;;;;;5131161;27;20567;-83
2021/05/14 11:11:57;;;;;;;5.80;2.77;;;13.00;1.00;;;;;;5128245;27;20452;-83
2021/05/14 11:14:24;;;;;;;6.60;2.90;;;13.00;1.00;;;;;;5128519;27;20472;-85
2021/05/14 11:16:51;;;;;;;2.70;2.20;;;12.90;1.00;;;;;;5116765;27;20493;-85
2021/05/14 11:19:20;;;;;;;2.73;2.53;;;12.80;1.00;;;;;;5139182;27;20531;-85
2021/05/14 11:22:20;;;;;;;2.83;2.50;;;13.10;1.00;;;;;;5125104;27;20396;-86
2021/05/14 11:24:50;;;;;;;4.50;2.63;;;13.40;1.00;;;;;;5140203;27;21479;-85
2021/05/14 11:27:20;;;;;;;2.60;2.40;;;13.40;1.00;;;;;;5131771;27;20408;-85
2021/05/14 11:29:52;;;;;;;3.63;2.67;;;13.50;1.00;;;;;;5131209;27;20465;-84
2021/05/14 11:32:32;;;;;;;5.53;3.03;;;14.00;1.00;;;;;;5138505;27;20457;-83
2021/05/14 11:35:05;;;;;;;3.00;2.07;;;14.50;1.00;;;;;;5133655;27;20465;-83
2021/05/14 11:37:33;;;;;;;3.00;2.03;;;14.80;1.00;;;;;;5134723;27;21290;-83
2021/05/14 11:40:06;;;;;;;5.43;2.83;;;15.10;1.00;;;;;;5136715;27;20442;-84
2021/05/14 11:42:39;;;;;;;3.13;2.70;;;15.80;1.00;;;;;;5126294;27;20469;-81
2021/05/14 11:45:07;;;;;;;4.60;2.30;;;16.00;1.00;;;;;;5128397;27;20531;-80
2021/05/14 11:47:34;;;;;;;3.97;2.83;;;15.70;1.00;;;;;;5127536;27;20975;-79
2021/05/14 11:50:01;;;;;;;3.63;2.77;;;15.20;1.00;;;;;;5127318;27;20972;-81
2021/05/14 11:52:40;;;;;;;5.57;3.00;;;15.10;1.00;;;;;;5122074;27;20559;-81
2021/05/14 11:55:10;;;;;;;3.00;2.70;;;14.70;1.00;;;;;;5132447;27;20465;-83
2021/05/14 11:57:39;;;;;;;6.40;3.23;;;14.60;1.00;;;;;;5133229;27;20445;-83
2021/05/14 12:00:08;;;;;;;4.10;3.07;;;14.50;1.00;;;;;;5131699;27;20441;-80
2021/05/14 12:02:38;;;;;;;7.30;5.43;;;14.40;1.00;;;;;;5132790;27;21232;-81
2021/05/14 12:05:06;;;;;;;7.80;3.70;;;14.40;1.00;;;;;;5129817;27;20548;-81
2021/05/14 12:07:32;;;;;;;23.03;20.60;;;14.50;1.00;;;;;;5128695;27;20457;-83
2021/05/14 12:10:00;;;;;;;5.70;4.40;;;14.20;1.00;;;;;;5138652;27;20461;-79
2021/05/14 12:12:27;;;;;;;4.73;4.10;;;14.00;1.00;;;;;;5141561;27;20464;-79
2021/05/14 12:15:18;;;;;;;5.10;4.67;;;13.70;1.00;;;;;;5130178;27;20462;-79
2021/05/14 12:17:46;;;;;;;6.20;5.33;;;13.50;1.00;;;;;;5125671;27;20461;-80
2021/05/14 12:20:29;;;;;;;5.27;4.80;;;13.50;1.00;;;;;;5126854;27;20445;-81
2021/05/14 12:22:59;;;;;;;7.50;5.40;;;13.50;1.00;;;;;;5127491;27;20454;-81
2021/05/14 12:25:27;;;;;;;7.07;5.63;;;13.40;1.00;;;;;;5121926;27;20461;-81
2021/05/14 12:27:53;;;;;;;5.90;5.30;;;13.30;1.00;;;;;;5127601;27;21017;-79
2021/05/14 12:30:20;;;;;;;6.63;6.03;;;13.10;1.00;;;;;;5130295;27;20445;-81
2021/05/14 12:32:55;;;;;;;6.27;5.67;;;13.10;1.00;;;;;;5129458;27;20421;-78
2021/05/14 12:35:22;;;;;;;7.63;6.10;;;13.00;1.00;;;;;;5127715;27;20455;-78
2021/05/14 12:37:57;;;;;;;5.60;5.10;;;13.00;1.00;;;;;;5125581;27;20449;-81
2021/05/14 12:40:36;;;;;;;5.10;4.70;;;13.00;1.00;;;;;;5135243;27;21303;-78
2021/05/14 12:43:07;;;;;;;4.73;4.33;;;13.00;1.00;;;;;;5134255;27;20432;-78
2021/05/14 12:45:36;;;;;;;4.57;4.07;;;13.10;1.00;;;;;;5129136;27;20429;-80
2021/05/14 12:48:04;;;;;;;5.20;4.70;;;13.20;1.00;;;;;;5136510;27;20440;-81
2021/05/14 12:50:30;;;;;;;5.60;5.00;;;13.30;1.00;;;;;;5128464;27;20461;-79
2021/05/14 12:52:57;;;;;;;4.63;4.23;;;13.30;1.00;;;;;;5135912;27;20456;-79
2021/05/14 12:55:24;;;;;;;4.10;3.80;;;13.40;1.00;;;;;;5134648;27;20441;-76
2021/05/14 12:57:56;;;;;;;4.20;2.83;;;13.60;1.00;;;;;;5136676;27;20450;-79
2021/05/14 13:00:24;;;;;;;6.03;3.57;;;13.80;1.00;;;;;;5128225;27;20992;-79
2021/05/14 13:02:52;;;;;;;4.00;3.40;;;14.00;1.00;;;;;;5129921;27;20405;-79
2021/05/14 13:05:19;;;;;;;5.80;3.90;;;14.40;1.00;;;;;;5118569;27;20428;-77